Orca — SY2714 — position and weather

sailwx.info

Track history (hours):
 
Tides and Currents Weather Stations Pressure Air Temp Water Temp Dewpoint Dewpoint Depression Visibility Wind Speed Wind Dir Waves Ship Positions

Orca

Last reported at 2017-Sep-25 08:00 UTC. Time now 2017-Sep-25 08:20 UTC.
Position N 37°24' E 025°16'.

Length 43 m; draft 2.4 m.

Type: Passenger vessel. MMSI: 237594800.

Date/timePositionNaut miles runAvg speedWind from/ knotsBaromVisibWave heightAir tempDewpointWater temp
2017-Sep-25 08:00N 37°24' E 025°16'2 4.7
2017-Sep-25 07:31N 37°26' E 025°17'2 3.9
2017-Sep-25 07:00N 37°27' E 025°20'0 0.0
2017-Sep-25 06:30N 37°27' E 025°20'0 0.0
2017-Sep-25 06:00N 37°27' E 025°20'0 0.0
2017-Sep-25 05:28N 37°27' E 025°20'0 0.0
2017-Sep-25 05:00N 37°27' E 025°20'0 0.0
2017-Sep-25 04:30N 37°27' E 025°20'0 0.0
2017-Sep-25 04:00N 37°27' E 025°20'0 0.0
2017-Sep-25 03:30N 37°27' E 025°20'0 0.0
2017-Sep-25 03:00N 37°27' E 025°20'0 0.0
2017-Sep-25 02:30N 37°27' E 025°20'0 0.0
2017-Sep-25 02:00N 37°27' E 025°20'0 0.0
2017-Sep-25 01:30N 37°27' E 025°20'0 0.0
2017-Sep-25 01:01N 37°27' E 025°20'0 0.0
2017-Sep-25 00:31N 37°27' E 025°20'0 0.0
2017-Sep-25 00:00N 37°27' E 025°20'0 0.0
2017-Sep-24 23:30N 37°27' E 025°20'0 0.0
2017-Sep-24 23:01N 37°27' E 025°20'0 0.0
2017-Sep-24 22:27N 37°27' E 025°20'0 0.0
2017-Sep-24 22:01N 37°27' E 025°20'0 0.0
2017-Sep-24 21:30N 37°27' E 025°20'0 0.0
2017-Sep-24 21:00N 37°27' E 025°20'0 0.0
2017-Sep-24 20:30N 37°27' E 025°20'0 0.0
2017-Sep-24 20:00N 37°27' E 025°20'0 0.0
2017-Sep-24 19:31N 37°27' E 025°20'0 0.0
2017-Sep-24 19:00N 37°27' E 025°20'0 0.0
2017-Sep-24 18:31N 37°27' E 025°20'0 0.0
2017-Sep-24 18:00N 37°27' E 025°20'0 0.0
2017-Sep-24 17:30N 37°27' E 025°20'0 0.0
2017-Sep-24 17:00N 37°27' E 025°20'0 0.0
2017-Sep-24 16:30N 37°27' E 025°20'0 0.0
2017-Sep-24 16:00N 37°27' E 025°20'0 0.0
2017-Sep-24 15:30N 37°27' E 025°20'0 0.0
2017-Sep-24 15:00N 37°27' E 025°20'0 0.0
2017-Sep-24 14:31N 37°27' E 025°20'0 0.0
2017-Sep-24 14:01N 37°27' E 025°20'0 0.0
2017-Sep-24 13:30N 37°27' E 025°20'0 0.0
2017-Sep-24 13:00N 37°27' E 025°20'0 0.0
2017-Sep-24 12:30N 37°27' E 025°20'0 0.0
2017-Sep-24 12:00N 37°27' E 025°20'0 0.0
2017-Sep-24 11:30N 37°27' E 025°20'0 0.2
2017-Sep-24 11:00N 37°27' E 025°20'4 8.5
2017-Sep-24 10:31N 37°24' E 025°16'0 0.0
2017-Sep-24 09:13N 37°24' E 025°16'0 0.0
2017-Sep-24 09:00N 37°24' E 025°16'0 0.0
2017-Sep-24 08:30N 37°24' E 025°16'0 0.0
2017-Sep-24 08:01N 37°24' E 025°16'1 1.9
2017-Sep-24 07:31N 37°25' E 025°16'3 6.8
2017-Sep-24 07:00N 37°27' E 025°20'0 0.0
2017-Sep-24 06:28N 37°27' E 025°20'0 0.0
2017-Sep-24 06:00N 37°27' E 025°20'0 0.0
2017-Sep-24 05:30N 37°27' E 025°20'0 0.0
2017-Sep-24 05:00N 37°27' E 025°20'0 0.0
2017-Sep-24 04:29N 37°27' E 025°20'0 0.0
2017-Sep-24 04:00N 37°27' E 025°20'0 0.0
2017-Sep-24 03:30N 37°27' E 025°20'0 0.0
2017-Sep-24 03:00N 37°27' E 025°20'0 0.0
2017-Sep-24 02:30N 37°27' E 025°20'0 0.0
2017-Sep-24 02:01N 37°27' E 025°20'0 0.0
2017-Sep-24 01:30N 37°27' E 025°20'0 0.0
2017-Sep-24 01:01N 37°27' E 025°20'0 0.0
2017-Sep-24 00:30N 37°27' E 025°20'0 0.0
2017-Sep-24 00:00N 37°27' E 025°20'0 0.0
2017-Sep-23 23:30N 37°27' E 025°20'0 0.0
2017-Sep-23 23:00N 37°27' E 025°20'0 0.0
2017-Sep-23 22:29N 37°27' E 025°20'0 0.0
2017-Sep-23 22:00N 37°27' E 025°20'0 0.0
2017-Sep-23 21:31N 37°27' E 025°20'0 0.0
2017-Sep-23 20:59N 37°27' E 025°20'0 0.0
2017-Sep-23 20:30N 37°27' E 025°20'0 0.0
2017-Sep-23 20:00N 37°27' E 025°20'0 0.0
2017-Sep-22 02:00N 37°27' E 025°20'0 0.0
2017-Sep-22 01:30N 37°27' E 025°20'0 0.0
2017-Sep-22 01:00N 37°27' E 025°20'0 0.0
2017-Sep-22 00:30N 37°27' E 025°20'0 0.0
2017-Sep-22 00:00N 37°27' E 025°20'0 0.0
2017-Sep-21 23:30N 37°27' E 025°20'0 0.0
2017-Sep-21 23:00N 37°27' E 025°20'0 0.0
2017-Sep-21 22:31N 37°27' E 025°20'0 0.0
2017-Sep-21 22:01N 37°27' E 025°20'0 0.0
2017-Sep-21 21:30N 37°27' E 025°20'0 0.0
2017-Sep-21 21:00N 37°27' E 025°20'0 0.0
2017-Sep-21 20:31N 37°27' E 025°20'0 0.0
2017-Sep-21 20:00N 37°27' E 025°20'0 0.0
2017-Sep-21 19:30N 37°27' E 025°20'0 0.0
2017-Sep-21 19:00N 37°27' E 025°20'0 0.0
2017-Sep-21 18:31N 37°27' E 025°20'0 0.0
2017-Sep-21 18:01N 37°27' E 025°20'0 0.0
2017-Sep-21 17:30N 37°27' E 025°20'0 0.0
2017-Sep-21 17:00N 37°27' E 025°20'0 0.0
2017-Sep-21 16:30N 37°27' E 025°20'0 0.0
2017-Sep-21 16:01N 37°27' E 025°20'0 0.0
2017-Sep-21 15:31N 37°27' E 025°20'0 0.0
2017-Sep-21 15:00N 37°27' E 025°20'0 0.0
2017-Sep-21 14:30N 37°27' E 025°20'0 0.0
2017-Sep-21 14:00N 37°27' E 025°20'0 0.0
2017-Sep-21 13:30N 37°27' E 025°20'0 0.0
2017-Sep-21 13:00N 37°27' E 025°20'0 0.0
2017-Sep-21 12:30N 37°27' E 025°20'0 0.0
2017-Sep-21 12:01N 37°27' E 025°20'0 0.0
2017-Sep-21 11:30N 37°27' E 025°20'1 2.5
2017-Sep-21 11:01N 37°27' E 025°18'3 6.4
2017-Sep-21 10:31N 37°24' E 025°16'3 6.4
2017-Sep-21 10:01N 37°27' E 025°18'0 0.9
2017-Sep-21 09:31N 37°27' E 025°18'4 7.2
2017-Sep-21 09:00N 37°24' E 025°16'0 0.0
2017-Sep-21 08:30N 37°24' E 025°16'0 0.0
2017-Sep-21 08:01N 37°24' E 025°16'2 4.2
2017-Sep-21 07:30N 37°26' E 025°17'2 4.8
2017-Sep-21 07:00N 37°27' E 025°20'0 0.0
2017-Sep-21 06:30N 37°27' E 025°20'0 0.0
2017-Sep-21 06:00N 37°27' E 025°20'0 0.0
2017-Sep-21 05:30N 37°27' E 025°20'0 0.0
2017-Sep-21 05:00N 37°27' E 025°20'0 0.0
2017-Sep-21 04:31N 37°27' E 025°20'0 0.0
2017-Sep-21 04:01N 37°27' E 025°20'0 0.0
2017-Sep-21 03:30N 37°27' E 025°20'0 0.0
2017-Sep-21 03:00N 37°27' E 025°20'0 0.0
2017-Sep-21 02:31N 37°27' E 025°20'0 0.0
2017-Sep-21 02:00N 37°27' E 025°20'0 0.0
2017-Sep-21 01:31N 37°27' E 025°20'0 0.0
2017-Sep-21 01:00N 37°27' E 025°20'0 0.0
2017-Sep-21 00:30N 37°27' E 025°20'0 0.0
2017-Sep-21 00:00N 37°27' E 025°20'0 0.0
2017-Sep-20 23:30N 37°27' E 025°20'0 0.0
2017-Sep-20 23:01N 37°27' E 025°20'0 0.0
2017-Sep-20 22:30N 37°27' E 025°20'0 0.0
2017-Sep-20 22:01N 37°27' E 025°20'0 0.0
2017-Sep-20 21:31N 37°27' E 025°20'0 0.0
2017-Sep-20 21:00N 37°27' E 025°20'0 0.0
2017-Sep-20 20:31N 37°27' E 025°20'0 0.0
2017-Sep-20 20:00N 37°27' E 025°20'0 0.0
2017-Sep-20 19:30N 37°27' E 025°20'0 0.0
2017-Sep-20 19:00N 37°27' E 025°20'0 0.0
2017-Sep-20 18:31N 37°27' E 025°20'0 0.0
2017-Sep-20 18:00N 37°27' E 025°20'0 0.0
2017-Sep-20 17:30N 37°27' E 025°20'0 0.0
2017-Sep-20 17:00N 37°27' E 025°20'0 0.0
2017-Sep-20 16:30N 37°27' E 025°20'0 0.0
2017-Sep-20 16:00N 37°27' E 025°20'0 0.0
2017-Sep-20 15:31N 37°27' E 025°20'0 0.0
2017-Sep-20 15:00N 37°27' E 025°20'0 0.0
2017-Sep-20 14:00N 37°27' E 025°20'0 0.0
2017-Sep-20 13:26N 37°27' E 025°20'0 0.0
2017-Sep-20 13:00N 37°27' E 025°20'0 0.0
2017-Sep-20 12:29N 37°27' E 025°20'0 0.0
2017-Sep-20 12:00N 37°27' E 025°20'0 0.0
2017-Sep-20 11:31N 37°27' E 025°20'1 1.3
2017-Sep-20 11:01N 37°27' E 025°19'4 7.5
2017-Sep-20 10:30N 37°24' E 025°16'0 0.0
2017-Sep-20 10:00N 37°24' E 025°16'0 0.0
2017-Sep-20 09:31N 37°24' E 025°16'1 2.7
2017-Sep-20 09:00N 37°25' E 025°16'3 6.2
2017-Sep-20 08:30N 37°27' E 025°20'4 8.4
2017-Sep-20 08:01N 37°24' E 025°16'2 3.2
2017-Sep-20 07:30N 37°25' E 025°17'3 5.6
2017-Sep-20 07:00N 37°27' E 025°20'0 0.0
2017-Sep-20 06:30N 37°27' E 025°20'4 7.4
2017-Sep-20 06:01N 37°25' E 025°16'2 3.1
2017-Sep-20 05:30N 37°26' E 025°17'2 4.2
2017-Sep-20 05:01N 37°27' E 025°20'0 0.0
2017-Sep-20 04:30N 37°27' E 025°20'0 0.0
2017-Sep-20 04:00N 37°27' E 025°20'0 0.0
2017-Sep-20 03:30N 37°27' E 025°20'0 0.0
2017-Sep-20 03:00N 37°27' E 025°20'0 0.0
2017-Sep-20 02:27N 37°27' E 025°20'0 0.0
2017-Sep-20 02:00N 37°27' E 025°20'0 0.0
2017-Sep-20 01:31N 37°27' E 025°20'0 0.0
2017-Sep-20 01:00N 37°27' E 025°20'0 0.0
2017-Sep-20 00:30N 37°27' E 025°20'0 0.0
2017-Sep-20 00:01N 37°27' E 025°20'0 0.0
2017-Sep-19 23:30N 37°27' E 025°20'0 0.0
2017-Sep-19 23:00N 37°27' E 025°20'0 0.0
2017-Sep-19 22:28N 37°27' E 025°20'0 0.0
2017-Sep-19 22:00N 37°27' E 025°20'0 0.0
2017-Sep-19 21:30N 37°27' E 025°20'0 0.0
2017-Sep-19 21:00N 37°27' E 025°20'0 0.0
2017-Sep-19 20:30N 37°27' E 025°20'0 0.0
2017-Sep-19 20:00N 37°27' E 025°20'0 0.0
2017-Sep-19 19:30N 37°27' E 025°20'0 0.0
2017-Sep-19 19:00N 37°27' E 025°20'0 0.0
2017-Sep-19 18:30N 37°27' E 025°20'0 0.0
2017-Sep-19 18:00N 37°27' E 025°20'0 0.0
2017-Sep-19 17:30N 37°27' E 025°20'0 0.0
2017-Sep-19 17:01N 37°27' E 025°20'0 0.0
2017-Sep-19 16:30N 37°27' E 025°20'0 0.0
2017-Sep-19 16:00N 37°27' E 025°20'0 0.0
2017-Sep-19 15:31N 37°27' E 025°20'0 0.0
2017-Sep-19 15:00N 37°27' E 025°20'0 0.0
2017-Sep-19 14:30N 37°27' E 025°20'0 0.0
2017-Sep-19 14:00N 37°27' E 025°20'0 0.0
2017-Sep-19 13:30N 37°27' E 025°20'0 0.0
2017-Sep-19 13:00N 37°27' E 025°20'0 0.0
2017-Sep-19 12:30N 37°27' E 025°20'0 0.0
2017-Sep-19 12:00N 37°27' E 025°20'0 0.0
2017-Sep-19 11:30N 37°27' E 025°20'0 0.0
2017-Sep-19 11:01N 37°27' E 025°20'4 8.5
2017-Sep-19 10:31N 37°24' E 025°16'1 2.4
2017-Sep-19 10:00N 37°25' E 025°16'3 6.5
2017-Sep-19 09:30N 37°27' E 025°20'4 8.4
2017-Sep-19 09:00N 37°24' E 025°16'0 0.0
2017-Sep-19 08:30N 37°24' E 025°16'0 0.0
2017-Sep-19 08:00N 37°24' E 025°16'2 3.3
2017-Sep-19 07:30N 37°25' E 025°17'3 5.3
2017-Sep-19 06:59N 37°27' E 025°20'0 0.0
2017-Sep-19 06:29N 37°27' E 025°20'0 0.0
2017-Sep-19 06:00N 37°27' E 025°20'0 0.0
2017-Sep-19 05:30N 37°27' E 025°20'0 0.0
2017-Sep-19 05:00N 37°27' E 025°20'0 0.0
2017-Sep-19 04:30N 37°27' E 025°20'0 0.0
2017-Sep-19 04:01N 37°27' E 025°20'0 0.0
2017-Sep-19 03:30N 37°27' E 025°20'0 0.0
2017-Sep-19 03:01N 37°27' E 025°20'0 0.0
2017-Sep-19 02:29N 37°27' E 025°20'0 0.0
2017-Sep-19 02:00N 37°27' E 025°20'0 0.0
2017-Sep-19 01:30N 37°27' E 025°20'0 0.0
2017-Sep-19 01:01N 37°27' E 025°20'0 0.0
2017-Sep-19 00:30N 37°27' E 025°20'0 0.0
2017-Sep-19 00:01N 37°27' E 025°20'0 0.0
2017-Sep-18 23:30N 37°27' E 025°20'0 0.0
2017-Sep-18 23:00N 37°27' E 025°20'0 0.0
2017-Sep-18 22:30N 37°27' E 025°20'0 0.0
2017-Sep-18 22:00N 37°27' E 025°20'0 0.0
2017-Sep-18 21:31N 37°27' E 025°20'0 0.0
2017-Sep-18 21:01N 37°27' E 025°20'0 0.0
2017-Sep-18 20:31N 37°27' E 025°20'0 0.0
2017-Sep-18 20:00N 37°27' E 025°20'0 0.0
2017-Sep-18 19:31N 37°27' E 025°20'0 0.0
2017-Sep-18 19:01N 37°27' E 025°20'0 0.0
2017-Sep-18 18:30N 37°27' E 025°20'0 0.0
2017-Sep-18 18:00N 37°27' E 025°20'0 0.0
2017-Sep-18 17:31N 37°27' E 025°20'0 0.0
2017-Sep-18 17:00N 37°27' E 025°20'0 0.0
2017-Sep-18 16:30N 37°27' E 025°20'0 0.0
2017-Sep-18 16:00N 37°27' E 025°20'0 0.0
2017-Sep-18 15:24N 37°27' E 025°20'0 0.0
2017-Sep-18 14:59N 37°27' E 025°20'0 0.0
2017-Sep-18 14:30N 37°27' E 025°20'0 0.0
2017-Sep-18 14:00N 37°27' E 025°20'0 0.0
2017-Sep-18 13:31N 37°27' E 025°20'0 0.0
2017-Sep-18 13:00N 37°27' E 025°20'0 0.0
2017-Sep-18 12:30N 37°27' E 025°20'0 0.0
2017-Sep-18 12:00N 37°27' E 025°20'0 0.0
2017-Sep-18 11:30N 37°27' E 025°20'0 0.1
2017-Sep-18 11:00N 37°27' E 025°20'4 8.5
2017-Sep-18 10:30N 37°24' E 025°16'0 0.0
2017-Sep-18 10:01N 37°24' E 025°16'0 0.0
2017-Sep-18 09:30N 37°24' E 025°16'0 0.0
2017-Sep-18 09:01N 37°24' E 025°16'0 0.0
2017-Sep-18 08:31N 37°24' E 025°16'0 0.0
2017-Sep-18 08:01N 37°24' E 025°16'1 1.7
2017-Sep-18 07:30N 37°25' E 025°16'4 7.2
2017-Sep-18 07:00N 37°27' E 025°20'0 0.0
2017-Sep-18 06:30N 37°27' E 025°20'0 0.0
2017-Sep-18 05:57N 37°27' E 025°20'0 0.0
2017-Sep-18 05:29N 37°27' E 025°20'0 0.0
2017-Sep-18 05:00N 37°27' E 025°20'0 0.0
2017-Sep-18 04:27N 37°27' E 025°20'0 0.0
2017-Sep-18 04:01N 37°27' E 025°20'0 0.0
2017-Sep-18 03:31N 37°27' E 025°20'0 0.0
2017-Sep-18 03:00N 37°27' E 025°20'0 0.0
2017-Sep-18 02:30N 37°27' E 025°20'0 0.0
2017-Sep-18 02:00N 37°27' E 025°20'0 0.0
2017-Sep-18 01:30N 37°27' E 025°20'0 0.0
2017-Sep-18 01:00N 37°27' E 025°20'0 0.0
2017-Sep-18 00:31N 37°27' E 025°20'0 0.0
2017-Sep-18 00:00N 37°27' E 025°20'0 0.0
2017-Sep-17 23:30N 37°27' E 025°20'0 0.0
2017-Sep-17 23:00N 37°27' E 025°20'0 0.0
2017-Sep-17 22:30N 37°27' E 025°20'0 0.0
2017-Sep-17 21:59N 37°27' E 025°20'0 0.0
2017-Sep-17 21:30N 37°27' E 025°20'0 0.0
2017-Sep-17 20:58N 37°27' E 025°20'0 0.0
2017-Sep-17 20:30N 37°27' E 025°20'0 0.0
2017-Sep-17 20:00N 37°27' E 025°20'0 0.0
2017-Sep-17 19:30N 37°27' E 025°20'0 0.0
2017-Sep-17 18:59N 37°27' E 025°20'0 0.0
2017-Sep-17 18:28N 37°27' E 025°20'0 0.0
2017-Sep-17 18:00N 37°27' E 025°20'0 0.0
2017-Sep-17 17:31N 37°27' E 025°20'0 0.0
2017-Sep-17 17:00N 37°27' E 025°20'0 0.0
2017-Sep-17 16:30N 37°27' E 025°20'0 0.0
2017-Sep-17 16:00N 37°27' E 025°20'0 0.0
2017-Sep-17 15:30N 37°27' E 025°20'0 0.0
2017-Sep-17 15:00N 37°27' E 025°20'0 0.0
2017-Sep-17 14:30N 37°27' E 025°20'0 0.0
2017-Sep-17 14:00N 37°27' E 025°20'0 0.0
2017-Sep-17 13:31N 37°27' E 025°20'0 0.0
2017-Sep-17 13:00N 37°27' E 025°20'0 0.0
2017-Sep-17 12:30N 37°27' E 025°20'0 0.0
2017-Sep-17 12:00N 37°27' E 025°20'0 0.0
2017-Sep-17 11:30N 37°27' E 025°20'0 0.0
2017-Sep-17 11:01N 37°27' E 025°20'4 8.3
2017-Sep-17 10:30N 37°24' E 025°16'0 0.0
2017-Sep-17 10:00N 37°24' E 025°16'0 0.0
2017-Sep-17 09:31N 37°24' E 025°16'1 1.7
2017-Sep-17 09:01N 37°25' E 025°16'4 7.1
2017-Sep-17 08:30N 37°27' E 025°20'4 8.5
2017-Sep-17 08:00N 37°24' E 025°16'1 2.4
2017-Sep-17 07:30N 37°25' E 025°16'3 6.3
2017-Sep-17 07:00N 37°27' E 025°20'1 1.3
2017-Sep-17 06:30N 37°27' E 025°19'4 7.8
2017-Sep-17 06:00N 37°24' E 025°16'5 9.9
2017-Sep-17 05:30N 37°28' E 025°19'0 0.1
2017-Sep-17 05:01N 37°28' E 025°19'1 1.9
2017-Sep-17 04:31N 37°27' E 025°20'0 0.0
2017-Sep-17 04:00N 37°27' E 025°20'0 0.0
2017-Sep-17 03:30N 37°27' E 025°20'0 0.0
2017-Sep-17 03:00N 37°27' E 025°20'0 0.0
2017-Sep-17 02:27N 37°27' E 025°20'0 0.0
2017-Sep-17 01:58N 37°27' E 025°20'0 0.0
2017-Sep-17 01:26N 37°27' E 025°20'0 0.0
2017-Sep-17 00:47N 37°27' E 025°20'0 0.0
2017-Sep-17 00:27N 37°27' E 025°20'0 0.0
2017-Sep-16 23:58N 37°27' E 025°20'0 0.0
2017-Sep-16 23:29N 37°27' E 025°20'0 0.0
2017-Sep-16 23:00N 37°27' E 025°20'0 0.0
2017-Sep-16 22:30N 37°27' E 025°20'0 0.0
2017-Sep-16 22:00N 37°27' E 025°20'0 0.0
2017-Sep-16 21:30N 37°27' E 025°20'0 0.0
2017-Sep-16 20:51N 37°27' E 025°20'0 0.0
2017-Sep-16 20:30N 37°27' E 025°20'0 0.0
2017-Sep-16 20:00N 37°27' E 025°20'0 0.0
2017-Sep-16 19:31N 37°27' E 025°20'0 0.0
2017-Sep-16 18:58N 37°27' E 025°20'0 0.0
2017-Sep-16 18:29N 37°27' E 025°20'0 0.0
2017-Sep-16 17:35N 37°27' E 025°20'0 0.0
2017-Sep-16 17:30N 37°27' E 025°20'0 0.0
2017-Sep-16 17:00N 37°27' E 025°20'0 0.0
2017-Sep-16 16:30N 37°27' E 025°20'0 0.0
2017-Sep-16 16:00N 37°27' E 025°20'0 0.0
2017-Sep-16 15:30N 37°27' E 025°20'0 0.0
2017-Sep-16 15:00N 37°27' E 025°20'0 0.0
2017-Sep-16 14:30N 37°27' E 025°20'0 0.0
2017-Sep-16 14:00N 37°27' E 025°20'0 0.0
2017-Sep-16 13:30N 37°27' E 025°20'0 0.0
2017-Sep-16 13:00N 37°27' E 025°20'0 0.0
2017-Sep-16 12:29N 37°27' E 025°20'0 0.0
2017-Sep-16 12:00N 37°27' E 025°20'0 0.0
2017-Sep-16 11:30N 37°27' E 025°20'0 0.0
2017-Sep-16 11:00N 37°27' E 025°20'4 8.5
2017-Sep-16 10:31N 37°24' E 025°16'0 0.0
2017-Sep-16 10:00N 37°24' E 025°16'0 0.0
2017-Sep-16 09:30N 37°24' E 025°16'0 0.0
2017-Sep-16 09:00N 37°24' E 025°16'0 0.0
2017-Sep-16 08:30N 37°24' E 025°16'0 0.0
2017-Sep-16 08:00N 37°24' E 025°16'2 3.2
2017-Sep-16 07:30N 37°25' E 025°16'3 6.1
2017-Sep-16 07:00N 37°27' E 025°20'0 0.0
2017-Sep-16 06:28N 37°27' E 025°20'0 0.0
2017-Sep-16 06:00N 37°27' E 025°20'0 0.0
2017-Sep-16 05:29N 37°27' E 025°20'0 0.0
2017-Sep-16 03:48N 37°27' E 025°20'0 0.0
2017-Sep-16 03:04N 37°27' E 025°20'0 0.0
2017-Sep-16 02:54N 37°27' E 025°20'0 0.0
2017-Sep-16 02:23N 37°27' E 025°20'0 0.0
2017-Sep-16 01:58N 37°27' E 025°20'0 0.0
2017-Sep-16 01:30N 37°27' E 025°20'0 0.0
2017-Sep-16 01:00N 37°27' E 025°20'0 0.0
2017-Sep-16 00:21N 37°27' E 025°20'0 0.0
2017-Sep-16 00:00N 37°27' E 025°20'0 0.0
2017-Sep-15 23:30N 37°27' E 025°20'0 0.0
2017-Sep-15 23:00N 37°27' E 025°20'0 0.0
2017-Sep-15 22:31N 37°27' E 025°20'0 0.0
2017-Sep-15 22:01N 37°27' E 025°20'0 0.0
2017-Sep-15 21:30N 37°27' E 025°20'0 0.0
2017-Sep-15 21:00N 37°27' E 025°20'0 0.0
2017-Sep-15 20:30N 37°27' E 025°20'0 0.0
2017-Sep-15 20:00N 37°27' E 025°20'0 0.0
2017-Sep-15 19:30N 37°27' E 025°20'0 0.0
2017-Sep-15 19:01N 37°27' E 025°20'0 0.0
2017-Sep-15 18:30N 37°27' E 025°20'0 0.0
2017-Sep-15 18:00N 37°27' E 025°20'0 0.0
2017-Sep-15 17:28N 37°27' E 025°20'0 0.0
2017-Sep-15 17:01N 37°27' E 025°20'0 0.0
2017-Sep-15 16:31N 37°27' E 025°20'0 0.0
2017-Sep-15 16:01N 37°27' E 025°20'0 0.0
2017-Sep-15 15:31N 37°27' E 025°20'0 0.0
2017-Sep-15 15:00N 37°27' E 025°20'0 0.0
2017-Sep-15 14:31N 37°27' E 025°20'0 0.0
2017-Sep-15 14:01N 37°27' E 025°20'0 0.0
2017-Sep-15 13:30N 37°27' E 025°20'0 0.0
2017-Sep-15 13:00N 37°27' E 025°20'0 0.0
2017-Sep-15 12:30N 37°27' E 025°20'0 0.0
2017-Sep-15 12:00N 37°27' E 025°20'0 0.0
2017-Sep-15 11:30N 37°27' E 025°20'0 0.0
2017-Sep-15 11:01N 37°27' E 025°20'4 8.5
2017-Sep-15 10:31N 37°24' E 025°16'0 0.0
2017-Sep-15 10:00N 37°24' E 025°16'0 0.0
2017-Sep-15 09:30N 37°24' E 025°16'0 0.0
2017-Sep-15 09:00N 37°24' E 025°16'0 0.0
2017-Sep-15 08:30N 37°24' E 025°16'  
Track history (hours):
 
Tides and Currents Weather Stations Pressure Air Temp Water Temp Dewpoint Dewpoint Depression Visibility Wind Speed Wind Dir Waves Ship Positions

Orca

Last reported at 2017-Sep-25 08:00 UTC. Time now 2017-Sep-25 08:20 UTC.
Position N 37°24' E 025°16'.

Length 43 m; draft 2.4 m.

Type: Passenger vessel. MMSI: 237594800.

Date/timePositionNaut miles runAvg speedWind from/ knotsBaromVisibWave heightAir tempDewpointWater temp
2017-Sep-25 08:00N 37°24' E 025°16'2 4.7
2017-Sep-25 07:31N 37°26' E 025°17'2 3.9
2017-Sep-25 07:00N 37°27' E 025°20'0 0.0
2017-Sep-25 06:30N 37°27' E 025°20'0 0.0
2017-Sep-25 06:00N 37°27' E 025°20'0 0.0
2017-Sep-25 05:28N 37°27' E 025°20'0 0.0
2017-Sep-25 05:00N 37°27' E 025°20'0 0.0
2017-Sep-25 04:30N 37°27' E 025°20'0 0.0
2017-Sep-25 04:00N 37°27' E 025°20'0 0.0
2017-Sep-25 03:30N 37°27' E 025°20'0 0.0
2017-Sep-25 03:00N 37°27' E 025°20'0 0.0
2017-Sep-25 02:30N 37°27' E 025°20'0 0.0
2017-Sep-25 02:00N 37°27' E 025°20'0 0.0
2017-Sep-25 01:30N 37°27' E 025°20'0 0.0
2017-Sep-25 01:01N 37°27' E 025°20'0 0.0
2017-Sep-25 00:31N 37°27' E 025°20'0 0.0
2017-Sep-25 00:00N 37°27' E 025°20'0 0.0
2017-Sep-24 23:30N 37°27' E 025°20'0 0.0
2017-Sep-24 23:01N 37°27' E 025°20'0 0.0
2017-Sep-24 22:27N 37°27' E 025°20'0 0.0
2017-Sep-24 22:01N 37°27' E 025°20'0 0.0
2017-Sep-24 21:30N 37°27' E 025°20'0 0.0
2017-Sep-24 21:00N 37°27' E 025°20'0 0.0
2017-Sep-24 20:30N 37°27' E 025°20'0 0.0
2017-Sep-24 20:00N 37°27' E 025°20'0 0.0
2017-Sep-24 19:31N 37°27' E 025°20'0 0.0
2017-Sep-24 19:00N 37°27' E 025°20'0 0.0
2017-Sep-24 18:31N 37°27' E 025°20'0 0.0
2017-Sep-24 18:00N 37°27' E 025°20'0 0.0
2017-Sep-24 17:30N 37°27' E 025°20'0 0.0
2017-Sep-24 17:00N 37°27' E 025°20'0 0.0
2017-Sep-24 16:30N 37°27' E 025°20'0 0.0
2017-Sep-24 16:00N 37°27' E 025°20'0 0.0
2017-Sep-24 15:30N 37°27' E 025°20'0 0.0
2017-Sep-24 15:00N 37°27' E 025°20'0 0.0
2017-Sep-24 14:31N 37°27' E 025°20'0 0.0
2017-Sep-24 14:01N 37°27' E 025°20'0 0.0
2017-Sep-24 13:30N 37°27' E 025°20'0 0.0
2017-Sep-24 13:00N 37°27' E 025°20'0 0.0
2017-Sep-24 12:30N 37°27' E 025°20'0 0.0
2017-Sep-24 12:00N 37°27' E 025°20'0 0.0
2017-Sep-24 11:30N 37°27' E 025°20'0 0.2
2017-Sep-24 11:00N 37°27' E 025°20'4 8.5
2017-Sep-24 10:31N 37°24' E 025°16'0 0.0
2017-Sep-24 09:13N 37°24' E 025°16'0 0.0
2017-Sep-24 09:00N 37°24' E 025°16'0 0.0
2017-Sep-24 08:30N 37°24' E 025°16'0 0.0
2017-Sep-24 08:01N 37°24' E 025°16'1 1.9
2017-Sep-24 07:31N 37°25' E 025°16'3 6.8
2017-Sep-24 07:00N 37°27' E 025°20'0 0.0
2017-Sep-24 06:28N 37°27' E 025°20'0 0.0
2017-Sep-24 06:00N 37°27' E 025°20'0 0.0
2017-Sep-24 05:30N 37°27' E 025°20'0 0.0
2017-Sep-24 05:00N 37°27' E 025°20'0 0.0
2017-Sep-24 04:29N 37°27' E 025°20'0 0.0
2017-Sep-24 04:00N 37°27' E 025°20'0 0.0
2017-Sep-24 03:30N 37°27' E 025°20'0 0.0
2017-Sep-24 03:00N 37°27' E 025°20'0 0.0
2017-Sep-24 02:30N 37°27' E 025°20'0 0.0
2017-Sep-24 02:01N 37°27' E 025°20'0 0.0
2017-Sep-24 01:30N 37°27' E 025°20'0 0.0
2017-Sep-24 01:01N 37°27' E 025°20'0 0.0
2017-Sep-24 00:30N 37°27' E 025°20'0 0.0
2017-Sep-24 00:00N 37°27' E 025°20'0 0.0
2017-Sep-23 23:30N 37°27' E 025°20'0 0.0
2017-Sep-23 23:00N 37°27' E 025°20'0 0.0
2017-Sep-23 22:29N 37°27' E 025°20'0 0.0
2017-Sep-23 22:00N 37°27' E 025°20'0 0.0
2017-Sep-23 21:31N 37°27' E 025°20'0 0.0
2017-Sep-23 20:59N 37°27' E 025°20'0 0.0
2017-Sep-23 20:30N 37°27' E 025°20'0 0.0
2017-Sep-23 20:00N 37°27' E 025°20'0 0.0
2017-Sep-22 02:00N 37°27' E 025°20'0 0.0
2017-Sep-22 01:30N 37°27' E 025°20'0 0.0
2017-Sep-22 01:00N 37°27' E 025°20'0 0.0
2017-Sep-22 00:30N 37°27' E 025°20'0 0.0
2017-Sep-22 00:00N 37°27' E 025°20'0 0.0
2017-Sep-21 23:30N 37°27' E 025°20'0 0.0
2017-Sep-21 23:00N 37°27' E 025°20'0 0.0
2017-Sep-21 22:31N 37°27' E 025°20'0 0.0
2017-Sep-21 22:01N 37°27' E 025°20'0 0.0
2017-Sep-21 21:30N 37°27' E 025°20'0 0.0
2017-Sep-21 21:00N 37°27' E 025°20'0 0.0
2017-Sep-21 20:31N 37°27' E 025°20'0 0.0
2017-Sep-21 20:00N 37°27' E 025°20'0 0.0
2017-Sep-21 19:30N 37°27' E 025°20'0 0.0
2017-Sep-21 19:00N 37°27' E 025°20'0 0.0
2017-Sep-21 18:31N 37°27' E 025°20'0 0.0
2017-Sep-21 18:01N 37°27' E 025°20'0 0.0
2017-Sep-21 17:30N 37°27' E 025°20'0 0.0
2017-Sep-21 17:00N 37°27' E 025°20'0 0.0
2017-Sep-21 16:30N 37°27' E 025°20'0 0.0
2017-Sep-21 16:01N 37°27' E 025°20'0 0.0
2017-Sep-21 15:31N 37°27' E 025°20'0 0.0
2017-Sep-21 15:00N 37°27' E 025°20'0 0.0
2017-Sep-21 14:30N 37°27' E 025°20'0 0.0
2017-Sep-21 14:00N 37°27' E 025°20'0 0.0
2017-Sep-21 13:30N 37°27' E 025°20'0 0.0
2017-Sep-21 13:00N 37°27' E 025°20'0 0.0
2017-Sep-21 12:30N 37°27' E 025°20'0 0.0
2017-Sep-21 12:01N 37°27' E 025°20'0 0.0
2017-Sep-21 11:30N 37°27' E 025°20'1 2.5
2017-Sep-21 11:01N 37°27' E 025°18'3 6.4
2017-Sep-21 10:31N 37°24' E 025°16'3 6.4
2017-Sep-21 10:01N 37°27' E 025°18'0 0.9
2017-Sep-21 09:31N 37°27' E 025°18'4 7.2
2017-Sep-21 09:00N 37°24' E 025°16'0 0.0
2017-Sep-21 08:30N 37°24' E 025°16'0 0.0
2017-Sep-21 08:01N 37°24' E 025°16'2 4.2
2017-Sep-21 07:30N 37°26' E 025°17'2 4.8
2017-Sep-21 07:00N 37°27' E 025°20'0 0.0
2017-Sep-21 06:30N 37°27' E 025°20'0 0.0
2017-Sep-21 06:00N 37°27' E 025°20'0 0.0
2017-Sep-21 05:30N 37°27' E 025°20'0 0.0
2017-Sep-21 05:00N 37°27' E 025°20'0 0.0
2017-Sep-21 04:31N 37°27' E 025°20'0 0.0
2017-Sep-21 04:01N 37°27' E 025°20'0 0.0
2017-Sep-21 03:30N 37°27' E 025°20'0 0.0
2017-Sep-21 03:00N 37°27' E 025°20'0 0.0
2017-Sep-21 02:31N 37°27' E 025°20'0 0.0
2017-Sep-21 02:00N 37°27' E 025°20'0 0.0
2017-Sep-21 01:31N 37°27' E 025°20'0 0.0
2017-Sep-21 01:00N 37°27' E 025°20'0 0.0
2017-Sep-21 00:30N 37°27' E 025°20'0 0.0
2017-Sep-21 00:00N 37°27' E 025°20'0 0.0
2017-Sep-20 23:30N 37°27' E 025°20'0 0.0
2017-Sep-20 23:01N 37°27' E 025°20'0 0.0
2017-Sep-20 22:30N 37°27' E 025°20'0 0.0
2017-Sep-20 22:01N 37°27' E 025°20'0 0.0
2017-Sep-20 21:31N 37°27' E 025°20'0 0.0
2017-Sep-20 21:00N 37°27' E 025°20'0 0.0
2017-Sep-20 20:31N 37°27' E 025°20'0 0.0
2017-Sep-20 20:00N 37°27' E 025°20'0 0.0
2017-Sep-20 19:30N 37°27' E 025°20'0 0.0
2017-Sep-20 19:00N 37°27' E 025°20'0 0.0
2017-Sep-20 18:31N 37°27' E 025°20'0 0.0
2017-Sep-20 18:00N 37°27' E 025°20'0 0.0
2017-Sep-20 17:30N 37°27' E 025°20'0 0.0
2017-Sep-20 17:00N 37°27' E 025°20'0 0.0
2017-Sep-20 16:30N 37°27' E 025°20'0 0.0
2017-Sep-20 16:00N 37°27' E 025°20'0 0.0
2017-Sep-20 15:31N 37°27' E 025°20'0 0.0
2017-Sep-20 15:00N 37°27' E 025°20'0 0.0
2017-Sep-20 14:00N 37°27' E 025°20'0 0.0
2017-Sep-20 13:26N 37°27' E 025°20'0 0.0
2017-Sep-20 13:00N 37°27' E 025°20'0 0.0
2017-Sep-20 12:29N 37°27' E 025°20'0 0.0
2017-Sep-20 12:00N 37°27' E 025°20'0 0.0
2017-Sep-20 11:31N 37°27' E 025°20'1 1.3
2017-Sep-20 11:01N 37°27' E 025°19'4 7.5
2017-Sep-20 10:30N 37°24' E 025°16'0 0.0
2017-Sep-20 10:00N 37°24' E 025°16'0 0.0
2017-Sep-20 09:31N 37°24' E 025°16'1 2.7
2017-Sep-20 09:00N 37°25' E 025°16'3 6.2
2017-Sep-20 08:30N 37°27' E 025°20'4 8.4
2017-Sep-20 08:01N 37°24' E 025°16'2 3.2
2017-Sep-20 07:30N 37°25' E 025°17'3 5.6
2017-Sep-20 07:00N 37°27' E 025°20'0 0.0
2017-Sep-20 06:30N 37°27' E 025°20'4 7.4
2017-Sep-20 06:01N 37°25' E 025°16'2 3.1
2017-Sep-20 05:30N 37°26' E 025°17'2 4.2
2017-Sep-20 05:01N 37°27' E 025°20'0 0.0
2017-Sep-20 04:30N 37°27' E 025°20'0 0.0
2017-Sep-20 04:00N 37°27' E 025°20'0 0.0
2017-Sep-20 03:30N 37°27' E 025°20'0 0.0
2017-Sep-20 03:00N 37°27' E 025°20'0 0.0
2017-Sep-20 02:27N 37°27' E 025°20'0 0.0
2017-Sep-20 02:00N 37°27' E 025°20'0 0.0
2017-Sep-20 01:31N 37°27' E 025°20'0 0.0
2017-Sep-20 01:00N 37°27' E 025°20'0 0.0
2017-Sep-20 00:30N 37°27' E 025°20'0 0.0
2017-Sep-20 00:01N 37°27' E 025°20'0 0.0
2017-Sep-19 23:30N 37°27' E 025°20'0 0.0
2017-Sep-19 23:00N 37°27' E 025°20'0 0.0
2017-Sep-19 22:28N 37°27' E 025°20'0 0.0
2017-Sep-19 22:00N 37°27' E 025°20'0 0.0
2017-Sep-19 21:30N 37°27' E 025°20'0 0.0
2017-Sep-19 21:00N 37°27' E 025°20'0 0.0
2017-Sep-19 20:30N 37°27' E 025°20'0 0.0
2017-Sep-19 20:00N 37°27' E 025°20'0 0.0
2017-Sep-19 19:30N 37°27' E 025°20'0 0.0
2017-Sep-19 19:00N 37°27' E 025°20'0 0.0
2017-Sep-19 18:30N 37°27' E 025°20'0 0.0
2017-Sep-19 18:00N 37°27' E 025°20'0 0.0
2017-Sep-19 17:30N 37°27' E 025°20'0 0.0
2017-Sep-19 17:01N 37°27' E 025°20'0 0.0
2017-Sep-19 16:30N 37°27' E 025°20'0 0.0
2017-Sep-19 16:00N 37°27' E 025°20'0 0.0
2017-Sep-19 15:31N 37°27' E 025°20'0 0.0
2017-Sep-19 15:00N 37°27' E 025°20'0 0.0
2017-Sep-19 14:30N 37°27' E 025°20'0 0.0
2017-Sep-19 14:00N 37°27' E 025°20'0 0.0
2017-Sep-19 13:30N 37°27' E 025°20'0 0.0
2017-Sep-19 13:00N 37°27' E 025°20'0 0.0
2017-Sep-19 12:30N 37°27' E 025°20'0 0.0
2017-Sep-19 12:00N 37°27' E 025°20'0 0.0
2017-Sep-19 11:30N 37°27' E 025°20'0 0.0
2017-Sep-19 11:01N 37°27' E 025°20'4 8.5
2017-Sep-19 10:31N 37°24' E 025°16'1 2.4
2017-Sep-19 10:00N 37°25' E 025°16'3 6.5
2017-Sep-19 09:30N 37°27' E 025°20'4 8.4
2017-Sep-19 09:00N 37°24' E 025°16'0 0.0
2017-Sep-19 08:30N 37°24' E 025°16'0 0.0
2017-Sep-19 08:00N 37°24' E 025°16'2 3.3
2017-Sep-19 07:30N 37°25' E 025°17'3 5.3
2017-Sep-19 06:59N 37°27' E 025°20'0 0.0
2017-Sep-19 06:29N 37°27' E 025°20'0 0.0
2017-Sep-19 06:00N 37°27' E 025°20'0 0.0
2017-Sep-19 05:30N 37°27' E 025°20'0 0.0
2017-Sep-19 05:00N 37°27' E 025°20'0 0.0
2017-Sep-19 04:30N 37°27' E 025°20'0 0.0
2017-Sep-19 04:01N 37°27' E 025°20'0 0.0
2017-Sep-19 03:30N 37°27' E 025°20'0 0.0
2017-Sep-19 03:01N 37°27' E 025°20'0 0.0
2017-Sep-19 02:29N 37°27' E 025°20'0 0.0
2017-Sep-19 02:00N 37°27' E 025°20'0 0.0
2017-Sep-19 01:30N 37°27' E 025°20'0 0.0
2017-Sep-19 01:01N 37°27' E 025°20'0 0.0
2017-Sep-19 00:30N 37°27' E 025°20'0 0.0
2017-Sep-19 00:01N 37°27' E 025°20'0 0.0
2017-Sep-18 23:30N 37°27' E 025°20'0 0.0
2017-Sep-18 23:00N 37°27' E 025°20'0 0.0
2017-Sep-18 22:30N 37°27' E 025°20'0 0.0
2017-Sep-18 22:00N 37°27' E 025°20'0 0.0
2017-Sep-18 21:31N 37°27' E 025°20'0 0.0
2017-Sep-18 21:01N 37°27' E 025°20'0 0.0
2017-Sep-18 20:31N 37°27' E 025°20'0 0.0
2017-Sep-18 20:00N 37°27' E 025°20'0 0.0
2017-Sep-18 19:31N 37°27' E 025°20'0 0.0
2017-Sep-18 19:01N 37°27' E 025°20'0 0.0
2017-Sep-18 18:30N 37°27' E 025°20'0 0.0
2017-Sep-18 18:00N 37°27' E 025°20'0 0.0
2017-Sep-18 17:31N 37°27' E 025°20'0 0.0
2017-Sep-18 17:00N 37°27' E 025°20'0 0.0
2017-Sep-18 16:30N 37°27' E 025°20'0 0.0
2017-Sep-18 16:00N 37°27' E 025°20'0 0.0
2017-Sep-18 15:24N 37°27' E 025°20'0 0.0
2017-Sep-18 14:59N 37°27' E 025°20'0 0.0
2017-Sep-18 14:30N 37°27' E 025°20'0 0.0
2017-Sep-18 14:00N 37°27' E 025°20'0 0.0
2017-Sep-18 13:31N 37°27' E 025°20'0 0.0
2017-Sep-18 13:00N 37°27' E 025°20'0 0.0
2017-Sep-18 12:30N 37°27' E 025°20'0 0.0
2017-Sep-18 12:00N 37°27' E 025°20'0 0.0
2017-Sep-18 11:30N 37°27' E 025°20'0 0.1
2017-Sep-18 11:00N 37°27' E 025°20'4 8.5
2017-Sep-18 10:30N 37°24' E 025°16'0 0.0
2017-Sep-18 10:01N 37°24' E 025°16'0 0.0
2017-Sep-18 09:30N 37°24' E 025°16'0 0.0
2017-Sep-18 09:01N 37°24' E 025°16'0 0.0
2017-Sep-18 08:31N 37°24' E 025°16'0 0.0
2017-Sep-18 08:01N 37°24' E 025°16'1 1.7
2017-Sep-18 07:30N 37°25' E 025°16'4 7.2
2017-Sep-18 07:00N 37°27' E 025°20'0 0.0
2017-Sep-18 06:30N 37°27' E 025°20'0 0.0
2017-Sep-18 05:57N 37°27' E 025°20'0 0.0
2017-Sep-18 05:29N 37°27' E 025°20'0 0.0
2017-Sep-18 05:00N 37°27' E 025°20'0 0.0
2017-Sep-18 04:27N 37°27' E 025°20'0 0.0
2017-Sep-18 04:01N 37°27' E 025°20'0 0.0
2017-Sep-18 03:31N 37°27' E 025°20'0 0.0
2017-Sep-18 03:00N 37°27' E 025°20'0 0.0
2017-Sep-18 02:30N 37°27' E 025°20'0 0.0
2017-Sep-18 02:00N 37°27' E 025°20'0 0.0
2017-Sep-18 01:30N 37°27' E 025°20'0 0.0
2017-Sep-18 01:00N 37°27' E 025°20'0 0.0
2017-Sep-18 00:31N 37°27' E 025°20'0 0.0
2017-Sep-18 00:00N 37°27' E 025°20'0 0.0
2017-Sep-17 23:30N 37°27' E 025°20'0 0.0
2017-Sep-17 23:00N 37°27' E 025°20'0 0.0
2017-Sep-17 22:30N 37°27' E 025°20'0 0.0
2017-Sep-17 21:59N 37°27' E 025°20'0 0.0
2017-Sep-17 21:30N 37°27' E 025°20'0 0.0
2017-Sep-17 20:58N 37°27' E 025°20'0 0.0
2017-Sep-17 20:30N 37°27' E 025°20'0 0.0
2017-Sep-17 20:00N 37°27' E 025°20'0 0.0
2017-Sep-17 19:30N 37°27' E 025°20'0 0.0
2017-Sep-17 18:59N 37°27' E 025°20'0 0.0
2017-Sep-17 18:28N 37°27' E 025°20'0 0.0
2017-Sep-17 18:00N 37°27' E 025°20'0 0.0
2017-Sep-17 17:31N 37°27' E 025°20'0 0.0
2017-Sep-17 17:00N 37°27' E 025°20'0 0.0
2017-Sep-17 16:30N 37°27' E 025°20'0 0.0
2017-Sep-17 16:00N 37°27' E 025°20'0 0.0
2017-Sep-17 15:30N 37°27' E 025°20'0 0.0
2017-Sep-17 15:00N 37°27' E 025°20'0 0.0
2017-Sep-17 14:30N 37°27' E 025°20'0 0.0
2017-Sep-17 14:00N 37°27' E 025°20'0 0.0
2017-Sep-17 13:31N 37°27' E 025°20'0 0.0
2017-Sep-17 13:00N 37°27' E 025°20'0 0.0
2017-Sep-17 12:30N 37°27' E 025°20'0 0.0
2017-Sep-17 12:00N 37°27' E 025°20'0 0.0
2017-Sep-17 11:30N 37°27' E 025°20'0 0.0
2017-Sep-17 11:01N 37°27' E 025°20'4 8.3
2017-Sep-17 10:30N 37°24' E 025°16'0 0.0
2017-Sep-17 10:00N 37°24' E 025°16'0 0.0
2017-Sep-17 09:31N 37°24' E 025°16'1 1.7
2017-Sep-17 09:01N 37°25' E 025°16'4 7.1
2017-Sep-17 08:30N 37°27' E 025°20'4 8.5
2017-Sep-17 08:00N 37°24' E 025°16'1 2.4
2017-Sep-17 07:30N 37°25' E 025°16'3 6.3
2017-Sep-17 07:00N 37°27' E 025°20'1 1.3
2017-Sep-17 06:30N 37°27' E 025°19'4 7.8
2017-Sep-17 06:00N 37°24' E 025°16'5 9.9
2017-Sep-17 05:30N 37°28' E 025°19'0 0.1
2017-Sep-17 05:01N 37°28' E 025°19'1 1.9
2017-Sep-17 04:31N 37°27' E 025°20'0 0.0
2017-Sep-17 04:00N 37°27' E 025°20'0 0.0
2017-Sep-17 03:30N 37°27' E 025°20'0 0.0
2017-Sep-17 03:00N 37°27' E 025°20'0 0.0
2017-Sep-17 02:27N 37°27' E 025°20'0 0.0
2017-Sep-17 01:58N 37°27' E 025°20'0 0.0
2017-Sep-17 01:26N 37°27' E 025°20'0 0.0
2017-Sep-17 00:47N 37°27' E 025°20'0 0.0
2017-Sep-17 00:27N 37°27' E 025°20'0 0.0
2017-Sep-16 23:58N 37°27' E 025°20'0 0.0
2017-Sep-16 23:29N 37°27' E 025°20'0 0.0
2017-Sep-16 23:00N 37°27' E 025°20'0 0.0
2017-Sep-16 22:30N 37°27' E 025°20'0 0.0
2017-Sep-16 22:00N 37°27' E 025°20'0 0.0
2017-Sep-16 21:30N 37°27' E 025°20'0 0.0
2017-Sep-16 20:51N 37°27' E 025°20'0 0.0
2017-Sep-16 20:30N 37°27' E 025°20'0 0.0
2017-Sep-16 20:00N 37°27' E 025°20'0 0.0
2017-Sep-16 19:31N 37°27' E 025°20'0 0.0
2017-Sep-16 18:58N 37°27' E 025°20'0 0.0
2017-Sep-16 18:29N 37°27' E 025°20'0 0.0
2017-Sep-16 17:35N 37°27' E 025°20'0 0.0
2017-Sep-16 17:30N 37°27' E 025°20'0 0.0
2017-Sep-16 17:00N 37°27' E 025°20'0 0.0
2017-Sep-16 16:30N 37°27' E 025°20'0 0.0
2017-Sep-16 16:00N 37°27' E 025°20'0 0.0
2017-Sep-16 15:30N 37°27' E 025°20'0 0.0
2017-Sep-16 15:00N 37°27' E 025°20'0 0.0
2017-Sep-16 14:30N 37°27' E 025°20'0 0.0
2017-Sep-16 14:00N 37°27' E 025°20'0 0.0
2017-Sep-16 13:30N 37°27' E 025°20'0 0.0
2017-Sep-16 13:00N 37°27' E 025°20'0 0.0
2017-Sep-16 12:29N 37°27' E 025°20'0 0.0
2017-Sep-16 12:00N 37°27' E 025°20'0 0.0
2017-Sep-16 11:30N 37°27' E 025°20'0 0.0
2017-Sep-16 11:00N 37°27' E 025°20'4 8.5
2017-Sep-16 10:31N 37°24' E 025°16'0 0.0
2017-Sep-16 10:00N 37°24' E 025°16'0 0.0
2017-Sep-16 09:30N 37°24' E 025°16'0 0.0
2017-Sep-16 09:00N 37°24' E 025°16'0 0.0
2017-Sep-16 08:30N 37°24' E 025°16'0 0.0
2017-Sep-16 08:00N 37°24' E 025°16'2 3.2
2017-Sep-16 07:30N 37°25' E 025°16'3 6.1
2017-Sep-16 07:00N 37°27' E 025°20'0 0.0
2017-Sep-16 06:28N 37°27' E 025°20'0 0.0
2017-Sep-16 06:00N 37°27' E 025°20'0 0.0
2017-Sep-16 05:29N 37°27' E 025°20'0 0.0
2017-Sep-16 03:48N 37°27' E 025°20'0 0.0
2017-Sep-16 03:04N 37°27' E 025°20'0 0.0
2017-Sep-16 02:54N 37°27' E 025°20'0 0.0
2017-Sep-16 02:23N 37°27' E 025°20'0 0.0
2017-Sep-16 01:58N 37°27' E 025°20'0 0.0
2017-Sep-16 01:30N 37°27' E 025°20'0 0.0
2017-Sep-16 01:00N 37°27' E 025°20'0 0.0
2017-Sep-16 00:21N 37°27' E 025°20'0 0.0
2017-Sep-16 00:00N 37°27' E 025°20'0 0.0
2017-Sep-15 23:30N 37°27' E 025°20'0 0.0
2017-Sep-15 23:00N 37°27' E 025°20'0 0.0
2017-Sep-15 22:31N 37°27' E 025°20'0 0.0
2017-Sep-15 22:01N 37°27' E 025°20'0 0.0
2017-Sep-15 21:30N 37°27' E 025°20'0 0.0
2017-Sep-15 21:00N 37°27' E 025°20'0 0.0
2017-Sep-15 20:30N 37°27' E 025°20'0 0.0
2017-Sep-15 20:00N 37°27' E 025°20'0 0.0
2017-Sep-15 19:30N 37°27' E 025°20'0 0.0
2017-Sep-15 19:01N 37°27' E 025°20'0 0.0
2017-Sep-15 18:30N 37°27' E 025°20'0 0.0
2017-Sep-15 18:00N 37°27' E 025°20'0 0.0
2017-Sep-15 17:28N 37°27' E 025°20'0 0.0
2017-Sep-15 17:01N 37°27' E 025°20'0 0.0
2017-Sep-15 16:31N 37°27' E 025°20'0 0.0
2017-Sep-15 16:01N 37°27' E 025°20'0 0.0
2017-Sep-15 15:31N 37°27' E 025°20'0 0.0
2017-Sep-15 15:00N 37°27' E 025°20'0 0.0
2017-Sep-15 14:31N 37°27' E 025°20'0 0.0
2017-Sep-15 14:01N 37°27' E 025°20'0 0.0
2017-Sep-15 13:30N 37°27' E 025°20'0 0.0
2017-Sep-15 13:00N 37°27' E 025°20'0 0.0
2017-Sep-15 12:30N 37°27' E 025°20'0 0.0
2017-Sep-15 12:00N 37°27' E 025°20'0 0.0
2017-Sep-15 11:30N 37°27' E 025°20'0 0.0
2017-Sep-15 11:01N 37°27' E 025°20'4 8.5
2017-Sep-15 10:31N 37°24' E 025°16'0 0.0
2017-Sep-15 10:00N 37°24' E 025°16'0 0.0
2017-Sep-15 09:30N 37°24' E 025°16'0 0.0
2017-Sep-15 09:00N 37°24' E 025°16'0 0.0
2017-Sep-15 08:30N 37°24' E 025°16'  

Dump ship's entire track history